DAL160 KSLC-KBZN
Flight info
| Callsign | DAL160 |
|---|---|
| Flight time | N/A |
| Altitude | 38000 |
| Route | RUGGD3 HOLTR SABAT LOSST1 |
| Aircraft | B738/M-SDE2E3FGHIRWXY/LB1 |
Departure
| Time | N/A |
|---|---|
| Airport | Salt Lake City International Airport (KSLC) |
Arrival
| Time | 2026-04-24 04:18 |
|---|---|
| Airport | Bozeman Yellowstone International Airport (KBZN) |
| Time | Latitude | Longitude | Altitude | Speed | Heading |
|---|---|---|---|---|---|
| 2026-04-24 04:18 | 45.77853 | -111.16007 | 4480 ft | 0 kts | 226° |
| 2026-04-24 04:23 | 45.77856 | -111.16003 | 4482 ft | 3 kts | 226° |
| 2026-04-24 04:23 | 45.77873 | -111.15974 | 4482 ft | 4 kts | 239° |
| 2026-04-24 04:24 | 45.77883 | -111.15940 | 4484 ft | 4 kts | 267° |
| 2026-04-24 04:24 | 45.77878 | -111.15910 | 4480 ft | 1 kts | 315° |
| 2026-04-24 04:24 | 45.77877 | -111.15909 | 4480 ft | 0 kts | 316° |
| 2026-04-24 04:26 | 45.77880 | -111.15912 | 4480 ft | 2 kts | 316° |
| 2026-04-24 04:26 | 45.77905 | -111.15932 | 4480 ft | 7 kts | 352° |
| 2026-04-24 04:26 | 45.77958 | -111.15894 | 4480 ft | 10 kts | 1° |
| 2026-04-24 04:26 | 45.78025 | -111.15967 | 4482 ft | 15 kts | 315° |
| 2026-04-24 04:27 | 45.78100 | -111.16071 | 4482 ft | 15 kts | 316° |
| 2026-04-24 04:27 | 45.78174 | -111.16172 | 4482 ft | 14 kts | 316° |
| 2026-04-24 04:27 | 45.78245 | -111.16270 | 4480 ft | 14 kts | 315° |
| 2026-04-24 04:27 | 45.78310 | -111.16364 | 4483 ft | 13 kts | 316° |
| 2026-04-24 04:28 | 45.78375 | -111.16452 | 4482 ft | 13 kts | 316° |
| 2026-04-24 04:28 | 45.78442 | -111.16545 | 4483 ft | 14 kts | 316° |
| 2026-04-24 04:28 | 45.78514 | -111.16646 | 4483 ft | 14 kts | 315° |
| 2026-04-24 04:28 | 45.78587 | -111.16749 | 4480 ft | 16 kts | 315° |
| 2026-04-24 04:29 | 45.78686 | -111.16807 | 4483 ft | 17 kts | 37° |
| 2026-04-24 04:29 | 45.78769 | -111.16686 | 4485 ft | 17 kts | 46° |
| 2026-04-24 04:29 | 45.78743 | -111.16553 | 4482 ft | 16 kts | 136° |
| 2026-04-24 04:29 | 45.78603 | -111.16360 | 4482 ft | 56 kts | 136° |
| 2026-04-24 04:30 | 45.78154 | -111.15737 | 4483 ft | 121 kts | 136° |
| 2026-04-24 04:30 | 45.77425 | -111.14722 | 4504 ft | 172 kts | 136° |
| 2026-04-24 04:30 | 45.76545 | -111.13466 | 5215 ft | 174 kts | 133° |
| 2026-04-24 04:30 | 45.75512 | -111.12541 | 5765 ft | 177 kts | 176° |
| 2026-04-24 04:31 | 45.74336 | -111.12999 | 6446 ft | 185 kts | 214° |
| 2026-04-24 04:31 | 45.73206 | -111.14072 | 6908 ft | 208 kts | 213° |
| 2026-04-24 04:31 | 45.71876 | -111.15156 | 7216 ft | 230 kts | 210° |
| 2026-04-24 04:31 | 45.70389 | -111.16294 | 7525 ft | 251 kts | 209° |
| 2026-04-24 04:32 | 45.68817 | -111.17461 | 8344 ft | 254 kts | 209° |
| 2026-04-24 04:32 | 45.67231 | -111.18624 | 8833 ft | 256 kts | 209° |
| 2026-04-24 04:32 | 45.65714 | -111.19957 | 8996 ft | 259 kts | 227° |
| 2026-04-24 04:32 | 45.64837 | -111.22183 | 9096 ft | 265 kts | 254° |
| 2026-04-24 04:33 | 45.64383 | -111.24765 | 9680 ft | 275 kts | 258° |
| 2026-04-24 04:33 | 45.63967 | -111.27458 | 10434 ft | 283 kts | 259° |
| 2026-04-24 04:33 | 45.63528 | -111.30333 | 10668 ft | 308 kts | 258° |
| 2026-04-24 04:33 | 45.63048 | -111.33444 | 10870 ft | 333 kts | 258° |
| 2026-04-24 04:34 | 45.62525 | -111.36767 | 11234 ft | 349 kts | 258° |
| 2026-04-24 04:34 | 45.61979 | -111.40184 | 11944 ft | 354 kts | 258° |
| 2026-04-24 04:34 | 45.61424 | -111.43624 | 12784 ft | 355 kts | 258° |
| 2026-04-24 04:34 | 45.60873 | -111.47026 | 13602 ft | 358 kts | 258° |
| 2026-04-24 04:35 | 45.60309 | -111.50505 | 14322 ft | 361 kts | 258° |
| 2026-04-24 04:35 | 45.59737 | -111.54014 | 15052 ft | 363 kts | 258° |
| 2026-04-24 04:35 | 45.59163 | -111.57531 | 15778 ft | 365 kts | 258° |
| 2026-04-24 04:35 | 45.58269 | -111.60938 | 16420 ft | 372 kts | 240° |
| 2026-04-24 04:36 | 45.56555 | -111.63747 | 17151 ft | 379 kts | 223° |
| 2026-04-24 04:36 | 45.54282 | -111.65734 | 17871 ft | 387 kts | 207° |
| 2026-04-24 04:36 | 45.51798 | -111.67262 | 18528 ft | 391 kts | 206° |
| 2026-04-24 04:36 | 45.49305 | -111.68731 | 19092 ft | 394 kts | 206° |
| 2026-04-24 04:37 | 45.46760 | -111.70228 | 19672 ft | 396 kts | 206° |
| 2026-04-24 04:37 | 45.44211 | -111.71746 | 20267 ft | 398 kts | 207° |
| 2026-04-24 04:37 | 45.41644 | -111.73294 | 20859 ft | 400 kts | 207° |
| 2026-04-24 04:37 | 45.39078 | -111.74853 | 21430 ft | 402 kts | 208° |
| 2026-04-24 04:38 | 45.36528 | -111.76408 | 21972 ft | 404 kts | 208° |
| 2026-04-24 04:38 | 45.33942 | -111.77983 | 22504 ft | 406 kts | 208° |
| 2026-04-24 04:38 | 45.31333 | -111.79568 | 22918 ft | 411 kts | 208° |
| 2026-04-24 04:38 | 45.28571 | -111.80823 | 23284 ft | 427 kts | 193° |
| 2026-04-24 04:39 | 45.25582 | -111.81155 | 23773 ft | 432 kts | 190° |
| 2026-04-24 04:39 | 45.22552 | -111.81429 | 23925 ft | 441 kts | 191° |
| 2026-04-24 04:39 | 45.19466 | -111.81738 | 24178 ft | 446 kts | 191° |
| 2026-04-24 04:39 | 45.16355 | -111.82061 | 24606 ft | 447 kts | 191° |
| 2026-04-24 04:40 | 45.13248 | -111.82392 | 25005 ft | 449 kts | 191° |
| 2026-04-24 04:40 | 45.10115 | -111.82735 | 25347 ft | 453 kts | 191° |
| 2026-04-24 04:40 | 45.06963 | -111.83089 | 25665 ft | 456 kts | 192° |
| 2026-04-24 04:40 | 45.03831 | -111.83442 | 25961 ft | 459 kts | 192° |
| 2026-04-24 04:41 | 45.00637 | -111.83804 | 26255 ft | 462 kts | 192° |
| 2026-04-24 04:41 | 44.97419 | -111.84170 | 26616 ft | 464 kts | 192° |
| 2026-04-24 04:41 | 44.94190 | -111.84533 | 26969 ft | 467 kts | 192° |
| 2026-04-24 04:41 | 44.90933 | -111.84898 | 27221 ft | 470 kts | 192° |
| 2026-04-24 04:42 | 44.87649 | -111.85275 | 27370 ft | 477 kts | 193° |
| 2026-04-24 04:42 | 44.84333 | -111.85647 | 27666 ft | 479 kts | 193° |
| 2026-04-24 04:42 | 44.81019 | -111.86009 | 28067 ft | 476 kts | 193° |
| 2026-04-24 04:42 | 44.77704 | -111.86376 | 28025 ft | 479 kts | 193° |
| 2026-04-24 04:43 | 44.71129 | -111.87102 | 28013 ft | 471 kts | 193° |
| 2026-04-24 04:43 | 44.64577 | -111.87836 | 28014 ft | 473 kts | 193° |
| 2026-04-24 04:44 | 44.61243 | -111.87789 | 27991 ft | 492 kts | 178° |
| 2026-04-24 04:44 | 44.57944 | -111.86235 | 28021 ft | 512 kts | 158° |
| 2026-04-24 04:44 | 44.55034 | -111.83275 | 28001 ft | 524 kts | 138° |
| 2026-04-24 04:44 | 44.52815 | -111.79229 | 28010 ft | 526 kts | 120° |
| 2026-04-24 04:45 | 44.51462 | -111.74467 | 28022 ft | 525 kts | 107° |
| 2026-04-24 04:45 | 44.50397 | -111.69548 | 27999 ft | 527 kts | 105° |
| 2026-04-24 04:45 | 44.48321 | -111.59676 | 27940 ft | 529 kts | 106° |
| 2026-04-24 04:46 | 44.47247 | -111.54737 | 27966 ft | 530 kts | 107° |
| 2026-04-24 04:46 | 44.46146 | -111.49805 | 27984 ft | 531 kts | 107° |
| 2026-04-24 04:46 | 44.43902 | -111.40001 | 27975 ft | 533 kts | 108° |
| 2026-04-24 04:47 | 44.42759 | -111.35060 | 27968 ft | 533 kts | 108° |
| 2026-04-24 04:47 | 44.41616 | -111.30126 | 27966 ft | 532 kts | 108° |
| 2026-04-24 04:47 | 44.40476 | -111.25208 | 27962 ft | 531 kts | 108° |
| 2026-04-24 04:47 | 44.39338 | -111.20302 | 27958 ft | 530 kts | 108° |
| 2026-04-24 04:48 | 44.38201 | -111.15406 | 27959 ft | 529 kts | 108° |
| 2026-04-24 04:48 | 44.37064 | -111.10517 | 27937 ft | 529 kts | 108° |
| 2026-04-24 04:48 | 44.35926 | -111.05635 | 27956 ft | 528 kts | 108° |
| 2026-04-24 04:48 | 44.34785 | -111.00749 | 27967 ft | 528 kts | 108° |
| 2026-04-24 04:49 | 44.33640 | -110.95860 | 27985 ft | 529 kts | 109° |
| 2026-04-24 04:49 | 44.32495 | -110.90980 | 27960 ft | 529 kts | 109° |
| 2026-04-24 04:49 | 44.31344 | -110.86089 | 27962 ft | 529 kts | 109° |
| 2026-04-24 04:49 | 44.30208 | -110.81265 | 27961 ft | 529 kts | 109° |
| 2026-04-24 04:50 | 44.29055 | -110.76385 | 27960 ft | 529 kts | 109° |
| 2026-04-24 04:50 | 44.27901 | -110.71508 | 27962 ft | 529 kts | 109° |
| 2026-04-24 04:50 | 44.26743 | -110.66623 | 27958 ft | 529 kts | 109° |
| 2026-04-24 04:50 | 44.25585 | -110.61755 | 27955 ft | 528 kts | 109° |
| 2026-04-24 04:51 | 44.24352 | -110.56922 | 27950 ft | 528 kts | 114° |
| 2026-04-24 04:51 | 44.22701 | -110.52371 | 27949 ft | 526 kts | 122° |
| 2026-04-24 04:51 | 44.20838 | -110.47985 | 27994 ft | 524 kts | 124° |
| 2026-04-24 04:51 | 44.18959 | -110.43631 | 27947 ft | 524 kts | 124° |
| 2026-04-24 04:52 | 44.17095 | -110.39259 | 27955 ft | 523 kts | 123° |
| 2026-04-24 04:52 | 44.15288 | -110.34939 | 27964 ft | 522 kts | 123° |
| 2026-04-24 04:52 | 44.13473 | -110.30556 | 27960 ft | 521 kts | 123° |
| 2026-04-24 04:52 | 44.11639 | -110.26203 | 27940 ft | 519 kts | 127° |
| 2026-04-24 04:53 | 44.09280 | -110.22494 | 27965 ft | 506 kts | 147° |
| 2026-04-24 04:53 | 44.06344 | -110.19934 | 27970 ft | 491 kts | 163° |
| 2026-04-24 04:53 | 44.03186 | -110.18497 | 27970 ft | 477 kts | 178° |
| 2026-04-24 04:53 | 44.01054 | -110.18066 | 27992 ft | 472 kts | 184° |
| 2026-04-24 05:33 | 43.98377 | -110.18014 | 27980 ft | 464 kts | 195° |
| 2026-04-24 05:33 | 43.95275 | -110.18824 | 27958 ft | 446 kts | 207° |
| 2026-04-24 05:34 | 43.89486 | -110.21482 | 27971 ft | 438 kts | 210° |
| 2026-04-24 05:34 | 43.86611 | -110.22875 | 27996 ft | 437 kts | 210° |
| 2026-04-24 05:34 | 43.83732 | -110.24259 | 27693 ft | 439 kts | 210° |
| 2026-04-24 05:34 | 43.80832 | -110.25634 | 27042 ft | 439 kts | 209° |
| 2026-04-24 05:35 | 43.77951 | -110.26971 | 26510 ft | 433 kts | 209° |
| 2026-04-24 05:35 | 43.75103 | -110.28275 | 25894 ft | 429 kts | 209° |
| 2026-04-24 05:35 | 43.72283 | -110.29557 | 25309 ft | 424 kts | 209° |
| 2026-04-24 05:35 | 43.69496 | -110.30824 | 24734 ft | 419 kts | 210° |
| 2026-04-24 05:36 | 43.66742 | -110.32082 | 24209 ft | 415 kts | 210° |
| 2026-04-24 05:36 | 43.64003 | -110.33319 | 23640 ft | 413 kts | 210° |
| 2026-04-24 05:36 | 43.61289 | -110.34562 | 22974 ft | 410 kts | 209° |
| 2026-04-24 05:36 | 43.58600 | -110.35794 | 22421 ft | 404 kts | 209° |
| 2026-04-24 05:37 | 43.55955 | -110.36995 | 21821 ft | 398 kts | 208° |
| 2026-04-24 05:37 | 43.53346 | -110.38168 | 21335 ft | 391 kts | 208° |
| 2026-04-24 05:37 | 43.50773 | -110.39347 | 20719 ft | 387 kts | 207° |
| 2026-04-24 05:37 | 43.48239 | -110.40499 | 20221 ft | 382 kts | 207° |
| 2026-04-24 05:38 | 43.45721 | -110.41656 | 19652 ft | 380 kts | 207° |
| 2026-04-24 05:38 | 43.43224 | -110.42786 | 19135 ft | 377 kts | 206° |
| 2026-04-24 05:38 | 43.40769 | -110.43890 | 18662 ft | 375 kts | 205° |
| 2026-04-24 05:38 | 43.38282 | -110.45025 | 18054 ft | 376 kts | 205° |
| 2026-04-24 05:39 | 43.35801 | -110.46138 | 17453 ft | 372 kts | 204° |
| 2026-04-24 05:39 | 43.33353 | -110.47234 | 16952 ft | 368 kts | 204° |
| 2026-04-24 05:39 | 43.30925 | -110.48332 | 16380 ft | 366 kts | 204° |
| 2026-04-24 05:39 | 43.28510 | -110.49420 | 15889 ft | 362 kts | 206° |
| 2026-04-24 05:40 | 43.26415 | -110.51055 | 15702 ft | 339 kts | 225° |
| 2026-04-24 05:40 | 43.24854 | -110.53360 | 15548 ft | 323 kts | 239° |
| 2026-04-24 05:40 | 43.23838 | -110.56029 | 15370 ft | 309 kts | 252° |
| 2026-04-24 05:40 | 43.23126 | -110.58729 | 15363 ft | 296 kts | 253° |
| 2026-04-24 05:41 | 43.22457 | -110.61336 | 15346 ft | 285 kts | 253° |
| 2026-04-24 05:41 | 43.21971 | -110.63903 | 15121 ft | 277 kts | 271° |
| 2026-04-24 05:41 | 43.22412 | -110.66400 | 15140 ft | 267 kts | 292° |
| 2026-04-24 05:41 | 43.23436 | -110.68552 | 14927 ft | 272 kts | 308° |
| 2026-04-24 05:42 | 43.24898 | -110.70166 | 14963 ft | 274 kts | 325° |
| 2026-04-24 05:42 | 43.26750 | -110.71142 | 15004 ft | 297 kts | 341° |
| 2026-04-24 05:42 | 43.28887 | -110.71177 | 15014 ft | 318 kts | 2° |
| 2026-04-24 05:42 | 43.31087 | -110.70575 | 15049 ft | 325 kts | 6° |
| 2026-04-24 05:43 | 43.33264 | -110.69878 | 14989 ft | 326 kts | 6° |
| 2026-04-24 05:43 | 43.35478 | -110.69151 | 14846 ft | 328 kts | 7° |
| 2026-04-24 05:43 | 43.36822 | -110.68713 | 14774 ft | 328 kts | 7° |
| 2026-04-24 05:43 | 43.38886 | -110.68047 | 14656 ft | 325 kts | 7° |
| 2026-04-24 05:44 | 43.41073 | -110.67351 | 14498 ft | 319 kts | 6° |
| 2026-04-24 05:44 | 43.43207 | -110.66677 | 14395 ft | 311 kts | 6° |
| 2026-04-24 05:44 | 43.45301 | -110.66025 | 14243 ft | 305 kts | 6° |
| 2026-04-24 05:44 | 43.47356 | -110.65390 | 14113 ft | 300 kts | 7° |
| 2026-04-24 05:45 | 43.49372 | -110.64758 | 14010 ft | 293 kts | 6° |
| 2026-04-24 05:45 | 43.51319 | -110.64150 | 13877 ft | 281 kts | 6° |
| 2026-04-24 05:45 | 43.53201 | -110.63553 | 13760 ft | 275 kts | 7° |
| 2026-04-24 05:45 | 43.54973 | -110.62535 | 13480 ft | 277 kts | 23° |
| 2026-04-24 05:46 | 43.56618 | -110.61230 | 13262 ft | 272 kts | 22° |
| 2026-04-24 05:46 | 43.58259 | -110.59973 | 12953 ft | 268 kts | 22° |
| 2026-04-24 05:46 | 43.59858 | -110.58770 | 12696 ft | 262 kts | 22° |
| 2026-04-24 05:46 | 43.61460 | -110.57577 | 12371 ft | 261 kts | 22° |
| 2026-04-24 05:47 | 43.63054 | -110.56394 | 12036 ft | 259 kts | 23° |
| 2026-04-24 05:47 | 43.64629 | -110.55224 | 11739 ft | 255 kts | 23° |
| 2026-04-24 05:47 | 43.66181 | -110.54075 | 11422 ft | 251 kts | 23° |
| 2026-04-24 05:47 | 43.67774 | -110.53209 | 11086 ft | 243 kts | 5° |
| 2026-04-24 05:48 | 43.69402 | -110.53293 | 10825 ft | 228 kts | 341° |
| 2026-04-24 05:48 | 43.70769 | -110.54163 | 10545 ft | 209 kts | 323° |
| 2026-04-24 05:48 | 43.71846 | -110.55435 | 10243 ft | 199 kts | 305° |
| 2026-04-24 05:48 | 43.72629 | -110.56908 | 9995 ft | 183 kts | 308° |
| 2026-04-24 05:49 | 43.73071 | -110.58467 | 9775 ft | 174 kts | 272° |
| 2026-04-24 05:49 | 43.72880 | -110.60014 | 9627 ft | 159 kts | 261° |
| 2026-04-24 05:49 | 43.72707 | -110.61480 | 9393 ft | 151 kts | 263° |
| 2026-04-24 05:49 | 43.72568 | -110.62926 | 9168 ft | 152 kts | 264° |
| 2026-04-24 05:50 | 43.72431 | -110.64409 | 8949 ft | 157 kts | 262° |
| 2026-04-24 05:50 | 43.72176 | -110.65882 | 8698 ft | 160 kts | 238° |
| 2026-04-24 05:50 | 43.71331 | -110.66810 | 8645 ft | 159 kts | 211° |
| 2026-04-24 05:50 | 43.70408 | -110.67679 | 8406 ft | 159 kts | 213° |
| 2026-04-24 05:51 | 43.69489 | -110.68560 | 8220 ft | 161 kts | 212° |
| 2026-04-24 05:51 | 43.68561 | -110.69428 | 8023 ft | 161 kts | 208° |
| 2026-04-24 05:51 | 43.67541 | -110.70042 | 7817 ft | 159 kts | 204° |
| 2026-04-24 05:51 | 43.66524 | -110.70607 | 7552 ft | 159 kts | 203° |
| 2026-04-24 05:52 | 43.65499 | -110.71181 | 7351 ft | 159 kts | 205° |
| 2026-04-24 05:52 | 43.64474 | -110.71759 | 7116 ft | 157 kts | 204° |
| 2026-04-24 05:52 | 43.63470 | -110.72327 | 6919 ft | 156 kts | 203° |
| 2026-04-24 05:52 | 43.62484 | -110.72941 | 6727 ft | 151 kts | 205° |
| 2026-04-24 05:53 | 43.61513 | -110.73392 | 6454 ft | 147 kts | 199° |
| 2026-04-24 05:53 | 43.60694 | -110.73792 | 6420 ft | 79 kts | 199° |
| 2026-04-24 05:53 | 43.60416 | -110.73909 | 6414 ft | 23 kts | 160° |
| 2026-04-24 05:53 | 43.60374 | -110.73836 | 6416 ft | 0 kts | 113° |
| 2026-04-24 05:54 | 43.60371 | -110.73828 | 6418 ft | 2 kts | 117° |
| 2026-04-24 05:54 | 43.60358 | -110.73813 | 6416 ft | 3 kts | 154° |
| 2026-04-24 05:55 | 43.60332 | -110.73810 | 6417 ft | 5 kts | 181° |
| 2026-04-24 05:55 | 43.60309 | -110.73785 | 6418 ft | 4 kts | 116° |
| 2026-04-24 05:55 | 43.60305 | -110.73766 | 6419 ft | 1 kts | 108° |
| 2026-04-24 05:55 | 43.60302 | -110.73757 | 6420 ft | 1 kts | 109° |
| 2026-04-24 05:56 | 43.60300 | -110.73747 | 6420 ft | 1 kts | 109° |
| 2026-04-24 05:56 | 43.60299 | -110.73744 | 6420 ft | 0 kts | 109° |